RYR79RN LZIB-EGPH
Flight info
| Callsign | RYR79RN |
|---|---|
| Flight time | 2h 18m |
| Altitude | 38000 |
| Route | TOVKA DCT DITIS DCT VEXIL DCT KUMER DCT LONAM DCT AGPED |
| Aircraft | B38M/M-SDE1FGHILORVWXY/HB1 |
Departure
| Time | 2026-04-20 12:06 |
|---|---|
| Airport | M. R. Štefánik Airport (LZIB) |
Arrival
| Time | 2026-04-20 14:24 |
|---|---|
| Airport | Edinburgh Airport (EGPH) |
| Time | Latitude | Longitude | Altitude | Speed | Heading |
|---|---|---|---|---|---|
| 2026-04-20 11:35 | 48.17002 | 17.20217 | 434 ft | 0 kts | 314° |
| 2026-04-20 11:58 | 48.17004 | 17.20218 | 434 ft | 0 kts | 343° |
| 2026-04-20 11:58 | 48.17006 | 17.20221 | 434 ft | 1 kts | 33° |
| 2026-04-20 11:59 | 48.17004 | 17.20231 | 434 ft | 1 kts | 119° |
| 2026-04-20 11:59 | 48.16976 | 17.20282 | 427 ft | 10 kts | 114° |
| 2026-04-20 11:59 | 48.16998 | 17.20341 | 429 ft | 8 kts | 31° |
| 2026-04-20 11:59 | 48.17053 | 17.20410 | 423 ft | 12 kts | 44° |
| 2026-04-20 12:00 | 48.17120 | 17.20507 | 425 ft | 15 kts | 44° |
| 2026-04-20 12:00 | 48.17160 | 17.20644 | 433 ft | 16 kts | 110° |
| 2026-04-20 12:00 | 48.17085 | 17.20775 | 427 ft | 18 kts | 133° |
| 2026-04-20 12:00 | 48.16995 | 17.20916 | 427 ft | 19 kts | 134° |
| 2026-04-20 12:01 | 48.16896 | 17.21068 | 432 ft | 22 kts | 131° |
| 2026-04-20 12:01 | 48.16792 | 17.21238 | 434 ft | 23 kts | 135° |
| 2026-04-20 12:01 | 48.16680 | 17.21413 | 430 ft | 24 kts | 133° |
| 2026-04-20 12:01 | 48.16561 | 17.21599 | 426 ft | 26 kts | 134° |
| 2026-04-20 12:02 | 48.16456 | 17.21761 | 424 ft | 18 kts | 134° |
| 2026-04-20 12:02 | 48.16374 | 17.21888 | 433 ft | 18 kts | 134° |
| 2026-04-20 12:02 | 48.16284 | 17.22027 | 425 ft | 19 kts | 134° |
| 2026-04-20 12:02 | 48.16186 | 17.22179 | 429 ft | 21 kts | 134° |
| 2026-04-20 12:03 | 48.16081 | 17.22342 | 430 ft | 23 kts | 134° |
| 2026-04-20 12:03 | 48.15967 | 17.22519 | 419 ft | 24 kts | 134° |
| 2026-04-20 12:03 | 48.15880 | 17.22654 | 431 ft | 17 kts | 134° |
| 2026-04-20 12:03 | 48.15806 | 17.22768 | 433 ft | 15 kts | 134° |
| 2026-04-20 12:04 | 48.15738 | 17.22874 | 427 ft | 10 kts | 130° |
| 2026-04-20 12:04 | 48.15700 | 17.22976 | 426 ft | 12 kts | 112° |
| 2026-04-20 12:04 | 48.15680 | 17.23110 | 426 ft | 14 kts | 92° |
| 2026-04-20 12:04 | 48.15721 | 17.23207 | 424 ft | 8 kts | 45° |
| 2026-04-20 12:05 | 48.15752 | 17.23217 | 430 ft | 7 kts | 331° |
| 2026-04-20 12:05 | 48.15789 | 17.23160 | 429 ft | 9 kts | 314° |
| 2026-04-20 12:05 | 48.15882 | 17.23017 | 427 ft | 44 kts | 314° |
| 2026-04-20 12:05 | 48.16263 | 17.22426 | 435 ft | 111 kts | 314° |
| 2026-04-20 12:06 | 48.16920 | 17.21394 | 523 ft | 154 kts | 311° |
| 2026-04-20 12:06 | 48.17697 | 17.20207 | 1084 ft | 165 kts | 312° |
| 2026-04-20 12:06 | 48.18494 | 17.18953 | 1917 ft | 164 kts | 314° |
| 2026-04-20 12:06 | 48.19311 | 17.17686 | 2563 ft | 180 kts | 313° |
| 2026-04-20 12:07 | 48.20249 | 17.16224 | 2988 ft | 209 kts | 313° |
| 2026-04-20 12:07 | 48.21309 | 17.14572 | 3606 ft | 230 kts | 313° |
| 2026-04-20 12:07 | 48.22466 | 17.12770 | 4239 ft | 247 kts | 313° |
| 2026-04-20 12:07 | 48.23657 | 17.10918 | 5278 ft | 245 kts | 313° |
| 2026-04-20 12:08 | 48.24592 | 17.08771 | 6168 ft | 250 kts | 288° |
| 2026-04-20 12:08 | 48.25007 | 17.06216 | 7064 ft | 255 kts | 284° |
| 2026-04-20 12:08 | 48.25404 | 17.03649 | 7977 ft | 257 kts | 283° |
| 2026-04-20 12:08 | 48.25803 | 17.00988 | 8913 ft | 259 kts | 283° |
| 2026-04-20 12:09 | 48.26192 | 16.98337 | 9847 ft | 261 kts | 282° |
| 2026-04-20 12:09 | 48.26577 | 16.95677 | 10500 ft | 271 kts | 282° |
| 2026-04-20 12:09 | 48.27037 | 16.92795 | 10886 ft | 290 kts | 290° |
| 2026-04-20 12:09 | 48.27945 | 16.90090 | 11494 ft | 298 kts | 297° |
| 2026-04-20 12:10 | 48.28943 | 16.87284 | 12271 ft | 302 kts | 297° |
| 2026-04-20 12:10 | 48.29928 | 16.84520 | 13043 ft | 306 kts | 297° |
| 2026-04-20 12:10 | 48.30942 | 16.81680 | 13822 ft | 310 kts | 297° |
| 2026-04-20 12:10 | 48.31968 | 16.78807 | 14538 ft | 313 kts | 297° |
| 2026-04-20 12:11 | 48.33001 | 16.75912 | 15271 ft | 316 kts | 297° |
| 2026-04-20 12:11 | 48.34043 | 16.72989 | 16001 ft | 319 kts | 296° |
| 2026-04-20 12:11 | 48.35094 | 16.70039 | 16715 ft | 322 kts | 296° |
| 2026-04-20 12:11 | 48.36154 | 16.67058 | 17423 ft | 324 kts | 296° |
| 2026-04-20 12:12 | 48.37221 | 16.64057 | 18094 ft | 328 kts | 296° |
| 2026-04-20 12:12 | 48.38302 | 16.61013 | 18698 ft | 331 kts | 296° |
| 2026-04-20 12:12 | 48.39388 | 16.57952 | 19270 ft | 333 kts | 296° |
| 2026-04-20 12:12 | 48.40482 | 16.54863 | 19829 ft | 336 kts | 296° |
| 2026-04-20 12:13 | 48.41585 | 16.51746 | 20377 ft | 339 kts | 296° |
| 2026-04-20 12:13 | 48.42698 | 16.48595 | 20937 ft | 342 kts | 296° |
| 2026-04-20 12:13 | 48.43817 | 16.45424 | 21459 ft | 345 kts | 296° |
| 2026-04-20 12:13 | 48.44946 | 16.42222 | 21996 ft | 348 kts | 296° |
| 2026-04-20 12:14 | 48.46083 | 16.38991 | 22530 ft | 351 kts | 296° |
| 2026-04-20 12:14 | 48.47231 | 16.35728 | 23048 ft | 354 kts | 296° |
| 2026-04-20 12:14 | 48.48389 | 16.32429 | 23568 ft | 357 kts | 296° |
| 2026-04-20 12:14 | 48.49554 | 16.29108 | 24004 ft | 360 kts | 296° |
| 2026-04-20 12:15 | 48.50727 | 16.25758 | 24454 ft | 362 kts | 296° |
| 2026-04-20 12:15 | 48.51907 | 16.22385 | 24923 ft | 364 kts | 296° |
| 2026-04-20 12:15 | 48.53090 | 16.18999 | 25366 ft | 367 kts | 296° |
| 2026-04-20 12:15 | 48.54282 | 16.15583 | 25803 ft | 369 kts | 296° |
| 2026-04-20 12:16 | 48.55481 | 16.12143 | 26251 ft | 371 kts | 296° |
| 2026-04-20 12:16 | 48.56685 | 16.08680 | 26692 ft | 373 kts | 296° |
| 2026-04-20 12:16 | 48.57896 | 16.05196 | 27113 ft | 376 kts | 296° |
| 2026-04-20 12:16 | 48.59110 | 16.01696 | 27533 ft | 378 kts | 296° |
| 2026-04-20 12:17 | 48.60333 | 15.98170 | 27943 ft | 380 kts | 296° |
| 2026-04-20 12:17 | 48.61562 | 15.94617 | 28340 ft | 382 kts | 296° |
| 2026-04-20 12:17 | 48.62797 | 15.91043 | 28743 ft | 385 kts | 296° |
| 2026-04-20 12:17 | 48.64038 | 15.87448 | 29140 ft | 387 kts | 296° |
| 2026-04-20 12:18 | 48.65285 | 15.83832 | 29517 ft | 389 kts | 296° |
| 2026-04-20 12:18 | 48.66535 | 15.80200 | 29884 ft | 391 kts | 296° |
| 2026-04-20 12:18 | 48.67794 | 15.76536 | 30221 ft | 393 kts | 296° |
| 2026-04-20 12:18 | 48.69057 | 15.72854 | 30504 ft | 395 kts | 296° |
| 2026-04-20 12:19 | 48.70327 | 15.69149 | 30777 ft | 398 kts | 296° |
| 2026-04-20 12:19 | 48.71602 | 15.65421 | 31048 ft | 400 kts | 296° |
| 2026-04-20 12:19 | 48.72887 | 15.61662 | 31310 ft | 403 kts | 296° |
| 2026-04-20 12:19 | 48.74178 | 15.57879 | 31571 ft | 405 kts | 296° |
| 2026-04-20 12:20 | 48.75458 | 15.54121 | 31823 ft | 408 kts | 296° |
| 2026-04-20 12:20 | 48.76759 | 15.50295 | 32072 ft | 410 kts | 296° |
| 2026-04-20 12:20 | 48.78068 | 15.46443 | 32343 ft | 412 kts | 296° |
| 2026-04-20 12:20 | 48.79383 | 15.42565 | 32600 ft | 415 kts | 296° |
| 2026-04-20 12:21 | 48.80704 | 15.38665 | 32840 ft | 417 kts | 296° |
| 2026-04-20 12:21 | 48.82032 | 15.34737 | 33115 ft | 419 kts | 296° |
| 2026-04-20 12:21 | 48.83360 | 15.30804 | 33453 ft | 419 kts | 296° |
| 2026-04-20 12:21 | 48.84688 | 15.26868 | 33791 ft | 419 kts | 296° |
| 2026-04-20 12:22 | 48.86014 | 15.22932 | 34093 ft | 419 kts | 296° |
| 2026-04-20 12:22 | 48.87342 | 15.18986 | 34353 ft | 419 kts | 296° |
| 2026-04-20 12:22 | 48.88669 | 15.15036 | 34611 ft | 420 kts | 296° |
| 2026-04-20 12:22 | 48.90180 | 15.11246 | 34855 ft | 421 kts | 309° |
| 2026-04-20 12:23 | 48.92190 | 15.08000 | 35136 ft | 422 kts | 311° |
| 2026-04-20 12:23 | 48.94201 | 15.04729 | 35321 ft | 424 kts | 311° |
| 2026-04-20 12:23 | 48.96225 | 15.01470 | 35572 ft | 424 kts | 311° |
| 2026-04-20 12:23 | 48.98262 | 14.98212 | 35825 ft | 425 kts | 311° |
| 2026-04-20 12:24 | 49.00302 | 14.94957 | 36078 ft | 425 kts | 311° |
| 2026-04-20 12:24 | 49.02343 | 14.91699 | 36310 ft | 425 kts | 312° |
| 2026-04-20 12:24 | 49.04382 | 14.88443 | 36550 ft | 426 kts | 312° |
| 2026-04-20 12:24 | 49.06425 | 14.85176 | 36775 ft | 426 kts | 312° |
| 2026-04-20 12:25 | 49.08468 | 14.81906 | 37000 ft | 426 kts | 312° |
| 2026-04-20 12:25 | 49.10514 | 14.78625 | 37228 ft | 426 kts | 312° |
| 2026-04-20 12:25 | 49.12559 | 14.75344 | 37429 ft | 427 kts | 312° |
| 2026-04-20 12:25 | 49.14603 | 14.72059 | 37640 ft | 427 kts | 312° |
| 2026-04-20 12:26 | 49.16648 | 14.68767 | 37831 ft | 427 kts | 312° |
| 2026-04-20 12:26 | 49.18691 | 14.65476 | 37996 ft | 428 kts | 312° |
| 2026-04-20 12:26 | 49.22784 | 14.58867 | 38029 ft | 427 kts | 312° |
| 2026-04-20 12:27 | 49.26865 | 14.52261 | 38029 ft | 427 kts | 312° |
| 2026-04-20 12:27 | 49.30948 | 14.45636 | 38029 ft | 428 kts | 312° |
| 2026-04-20 12:28 | 49.34997 | 14.39048 | 38024 ft | 428 kts | 312° |
| 2026-04-20 12:28 | 49.39079 | 14.32390 | 38020 ft | 428 kts | 312° |
| 2026-04-20 12:29 | 49.43159 | 14.25716 | 38023 ft | 429 kts | 312° |
| 2026-04-20 12:29 | 49.47237 | 14.19030 | 38024 ft | 429 kts | 312° |
| 2026-04-20 12:30 | 49.51317 | 14.12323 | 38022 ft | 429 kts | 312° |
| 2026-04-20 12:30 | 49.55393 | 14.05604 | 38019 ft | 429 kts | 312° |
| 2026-04-20 12:31 | 49.59468 | 13.98869 | 38026 ft | 429 kts | 312° |
| 2026-04-20 12:31 | 49.63537 | 13.92127 | 38029 ft | 429 kts | 312° |
| 2026-04-20 12:32 | 49.67601 | 13.85375 | 38026 ft | 429 kts | 312° |
| 2026-04-20 12:32 | 49.71662 | 13.78611 | 38033 ft | 429 kts | 312° |
| 2026-04-20 12:33 | 49.75717 | 13.71839 | 38039 ft | 429 kts | 312° |
| 2026-04-20 12:33 | 49.79737 | 13.65106 | 38039 ft | 429 kts | 312° |
| 2026-04-20 12:34 | 49.83780 | 13.58317 | 38052 ft | 429 kts | 311° |
| 2026-04-20 12:34 | 49.87821 | 13.51516 | 38046 ft | 429 kts | 311° |
| 2026-04-20 12:35 | 49.91854 | 13.44708 | 38051 ft | 429 kts | 311° |
| 2026-04-20 12:35 | 49.95886 | 13.37883 | 38048 ft | 429 kts | 311° |
| 2026-04-20 12:36 | 49.99913 | 13.31049 | 38040 ft | 429 kts | 311° |
| 2026-04-20 12:36 | 50.03938 | 13.24202 | 38043 ft | 429 kts | 311° |
| 2026-04-20 12:37 | 50.07959 | 13.17340 | 38045 ft | 429 kts | 311° |
| 2026-04-20 12:37 | 50.11981 | 13.10462 | 38052 ft | 430 kts | 311° |
| 2026-04-20 12:38 | 50.16000 | 13.03568 | 38046 ft | 430 kts | 311° |
| 2026-04-20 12:38 | 50.20015 | 12.96661 | 38050 ft | 430 kts | 311° |
| 2026-04-20 12:39 | 50.26041 | 12.86264 | 38048 ft | 430 kts | 311° |
| 2026-04-20 12:40 | 50.30051 | 12.79325 | 38047 ft | 430 kts | 311° |
| 2026-04-20 12:40 | 50.34060 | 12.72369 | 38057 ft | 431 kts | 311° |
| 2026-04-20 12:41 | 50.38069 | 12.65396 | 38062 ft | 431 kts | 311° |
| 2026-04-20 12:41 | 50.42149 | 12.58517 | 38065 ft | 431 kts | 312° |
| 2026-04-20 12:42 | 50.46238 | 12.51634 | 38072 ft | 431 kts | 312° |
| 2026-04-20 12:42 | 50.50323 | 12.44735 | 38078 ft | 431 kts | 312° |
| 2026-04-20 12:43 | 50.54382 | 12.37864 | 38071 ft | 432 kts | 312° |
| 2026-04-20 12:43 | 50.58464 | 12.30932 | 38083 ft | 432 kts | 312° |
| 2026-04-20 12:44 | 50.62542 | 12.23989 | 38076 ft | 432 kts | 312° |
| 2026-04-20 12:44 | 50.66619 | 12.17029 | 38081 ft | 432 kts | 312° |
| 2026-04-20 12:45 | 50.70692 | 12.10057 | 38076 ft | 432 kts | 312° |
| 2026-04-20 12:45 | 50.74760 | 12.03072 | 38078 ft | 432 kts | 312° |
| 2026-04-20 12:46 | 50.78826 | 11.96074 | 38089 ft | 433 kts | 312° |
| 2026-04-20 12:46 | 50.82890 | 11.89057 | 38084 ft | 433 kts | 312° |
| 2026-04-20 12:47 | 50.86954 | 11.82023 | 38085 ft | 433 kts | 312° |
| 2026-04-20 12:47 | 50.91017 | 11.74971 | 38093 ft | 433 kts | 312° |
| 2026-04-20 12:48 | 50.95074 | 11.67909 | 38080 ft | 433 kts | 311° |
| 2026-04-20 12:48 | 50.99126 | 11.60835 | 38090 ft | 433 kts | 311° |
| 2026-04-20 12:49 | 51.03173 | 11.53751 | 38088 ft | 433 kts | 311° |
| 2026-04-20 12:49 | 51.07219 | 11.46649 | 38091 ft | 433 kts | 311° |
| 2026-04-20 12:50 | 51.11263 | 11.39530 | 38096 ft | 434 kts | 311° |
| 2026-04-20 12:50 | 51.15305 | 11.32394 | 38097 ft | 434 kts | 311° |
| 2026-04-20 12:51 | 51.19345 | 11.25242 | 38099 ft | 434 kts | 311° |
| 2026-04-20 12:51 | 51.23355 | 11.18124 | 38100 ft | 434 kts | 311° |
| 2026-04-20 12:52 | 51.27390 | 11.10939 | 38096 ft | 435 kts | 311° |
| 2026-04-20 12:52 | 51.31423 | 11.03739 | 38102 ft | 435 kts | 311° |
| 2026-04-20 12:53 | 51.35453 | 10.96523 | 38102 ft | 435 kts | 311° |
| 2026-04-20 12:53 | 51.39482 | 10.89288 | 38105 ft | 435 kts | 311° |
| 2026-04-20 12:54 | 51.43508 | 10.82039 | 38106 ft | 435 kts | 311° |
| 2026-04-20 12:54 | 51.47530 | 10.74782 | 38111 ft | 435 kts | 311° |
| 2026-04-20 12:55 | 51.51550 | 10.67506 | 38115 ft | 435 kts | 311° |
| 2026-04-20 12:55 | 51.54667 | 10.61180 | 38122 ft | 435 kts | 301° |
| 2026-04-20 12:56 | 51.57879 | 10.52930 | 38123 ft | 436 kts | 302° |
| 2026-04-20 12:56 | 51.61629 | 10.43312 | 38128 ft | 436 kts | 302° |
| 2026-04-20 12:57 | 51.64324 | 10.36371 | 38137 ft | 437 kts | 302° |
| 2026-04-20 12:57 | 51.67537 | 10.28069 | 38140 ft | 437 kts | 302° |
| 2026-04-20 12:58 | 51.70743 | 10.19758 | 38140 ft | 437 kts | 302° |
| 2026-04-20 12:58 | 51.73925 | 10.11484 | 38143 ft | 437 kts | 302° |
| 2026-04-20 12:59 | 51.77145 | 10.03084 | 38143 ft | 437 kts | 302° |
| 2026-04-20 12:59 | 51.80317 | 9.94782 | 38145 ft | 437 kts | 302° |
| 2026-04-20 13:00 | 51.83508 | 9.86401 | 38156 ft | 438 kts | 302° |
| 2026-04-20 13:00 | 51.86693 | 9.78010 | 38156 ft | 438 kts | 302° |
| 2026-04-20 13:01 | 51.89873 | 9.69603 | 38166 ft | 438 kts | 301° |
| 2026-04-20 13:01 | 51.93050 | 9.61178 | 38162 ft | 438 kts | 301° |
| 2026-04-20 13:02 | 51.96222 | 9.52739 | 38155 ft | 438 kts | 301° |
| 2026-04-20 13:02 | 51.99387 | 9.44289 | 38161 ft | 439 kts | 301° |
| 2026-04-20 13:03 | 52.02548 | 9.35824 | 38165 ft | 438 kts | 301° |
| 2026-04-20 13:03 | 52.05703 | 9.27344 | 38163 ft | 439 kts | 301° |
| 2026-04-20 13:04 | 52.08853 | 9.18849 | 38172 ft | 439 kts | 301° |
| 2026-04-20 13:04 | 52.11999 | 9.10336 | 38182 ft | 439 kts | 301° |
| 2026-04-20 13:05 | 52.15140 | 9.01811 | 38182 ft | 439 kts | 301° |
| 2026-04-20 13:05 | 52.18277 | 8.93266 | 38174 ft | 439 kts | 301° |
| 2026-04-20 13:06 | 52.21409 | 8.84706 | 38179 ft | 440 kts | 301° |
| 2026-04-20 13:06 | 52.24537 | 8.76124 | 38174 ft | 440 kts | 301° |
| 2026-04-20 13:07 | 52.27662 | 8.67527 | 38170 ft | 441 kts | 301° |
| 2026-04-20 13:07 | 52.30763 | 8.58965 | 38174 ft | 441 kts | 301° |
| 2026-04-20 13:08 | 52.33875 | 8.50343 | 38188 ft | 440 kts | 300° |
| 2026-04-20 13:08 | 52.36981 | 8.41707 | 38196 ft | 440 kts | 300° |
| 2026-04-20 13:09 | 52.40084 | 8.33053 | 38201 ft | 441 kts | 300° |
| 2026-04-20 13:09 | 52.43180 | 8.24383 | 38207 ft | 441 kts | 300° |
| 2026-04-20 13:10 | 52.46271 | 8.15702 | 38207 ft | 441 kts | 300° |
| 2026-04-20 13:10 | 52.49361 | 8.06991 | 38205 ft | 441 kts | 300° |
| 2026-04-20 13:11 | 52.52443 | 7.98274 | 38203 ft | 442 kts | 300° |
| 2026-04-20 13:11 | 52.55519 | 7.89543 | 38201 ft | 442 kts | 300° |
| 2026-04-20 13:12 | 52.58594 | 7.80784 | 38205 ft | 442 kts | 300° |
| 2026-04-20 13:12 | 52.61660 | 7.72019 | 38199 ft | 442 kts | 300° |
| 2026-04-20 13:13 | 52.64723 | 7.63235 | 38203 ft | 442 kts | 300° |
| 2026-04-20 13:13 | 52.67778 | 7.54440 | 38207 ft | 442 kts | 300° |
| 2026-04-20 13:14 | 52.70825 | 7.45637 | 38213 ft | 442 kts | 300° |
| 2026-04-20 13:14 | 52.73869 | 7.36813 | 38215 ft | 443 kts | 300° |
| 2026-04-20 13:15 | 52.76908 | 7.27970 | 38210 ft | 443 kts | 300° |
| 2026-04-20 13:15 | 52.79918 | 7.19184 | 38208 ft | 442 kts | 299° |
| 2026-04-20 13:16 | 52.82942 | 7.10322 | 38207 ft | 443 kts | 299° |
| 2026-04-20 13:16 | 52.85963 | 7.01441 | 38207 ft | 443 kts | 299° |
| 2026-04-20 13:17 | 52.88974 | 6.92552 | 38211 ft | 443 kts | 299° |
| 2026-04-20 13:17 | 52.91980 | 6.83650 | 38225 ft | 443 kts | 299° |
| 2026-04-20 13:18 | 52.94979 | 6.74737 | 38231 ft | 443 kts | 299° |
| 2026-04-20 13:18 | 52.97971 | 6.65811 | 38233 ft | 443 kts | 299° |
| 2026-04-20 13:19 | 53.00957 | 6.56868 | 38241 ft | 443 kts | 299° |
| 2026-04-20 13:19 | 53.03936 | 6.47917 | 38238 ft | 443 kts | 299° |
| 2026-04-20 13:20 | 53.06908 | 6.38954 | 38236 ft | 442 kts | 298° |
| 2026-04-20 13:20 | 53.09872 | 6.29980 | 38239 ft | 442 kts | 298° |
| 2026-04-20 13:21 | 53.12827 | 6.21003 | 38237 ft | 442 kts | 298° |
| 2026-04-20 13:21 | 53.15776 | 6.12012 | 38231 ft | 442 kts | 298° |
| 2026-04-20 13:22 | 53.18717 | 6.03012 | 38237 ft | 442 kts | 298° |
| 2026-04-20 13:22 | 53.21650 | 5.94001 | 38237 ft | 442 kts | 298° |
| 2026-04-20 13:23 | 53.24580 | 5.84967 | 38237 ft | 442 kts | 298° |
| 2026-04-20 13:23 | 53.27502 | 5.75925 | 38238 ft | 443 kts | 298° |
| 2026-04-20 13:24 | 53.30419 | 5.66865 | 38237 ft | 443 kts | 298° |
| 2026-04-20 13:24 | 53.33311 | 5.57850 | 38236 ft | 443 kts | 298° |
| 2026-04-20 13:25 | 53.36215 | 5.48762 | 38239 ft | 443 kts | 298° |
| 2026-04-20 13:25 | 53.39116 | 5.39651 | 38243 ft | 444 kts | 298° |
| 2026-04-20 13:26 | 53.42011 | 5.30522 | 38252 ft | 444 kts | 298° |
| 2026-04-20 13:26 | 53.44900 | 5.21380 | 38251 ft | 443 kts | 298° |
| 2026-04-20 13:27 | 53.47779 | 5.12232 | 38254 ft | 443 kts | 298° |
| 2026-04-20 13:27 | 53.50655 | 5.03061 | 38259 ft | 444 kts | 297° |
| 2026-04-20 13:28 | 53.53523 | 4.93883 | 38265 ft | 444 kts | 297° |
| 2026-04-20 13:28 | 53.56386 | 4.84683 | 38262 ft | 444 kts | 297° |
| 2026-04-20 13:29 | 53.59242 | 4.75471 | 38264 ft | 444 kts | 297° |
| 2026-04-20 13:29 | 53.62089 | 4.66252 | 38264 ft | 444 kts | 297° |
| 2026-04-20 13:30 | 53.64934 | 4.57013 | 38272 ft | 444 kts | 297° |
| 2026-04-20 13:30 | 53.67770 | 4.47773 | 38270 ft | 444 kts | 297° |
| 2026-04-20 13:31 | 53.70601 | 4.38513 | 38272 ft | 444 kts | 297° |
| 2026-04-20 13:31 | 53.73431 | 4.29224 | 38275 ft | 445 kts | 297° |
| 2026-04-20 13:32 | 53.76250 | 4.19934 | 38273 ft | 445 kts | 297° |
| 2026-04-20 13:32 | 53.79067 | 4.10617 | 38277 ft | 445 kts | 297° |
| 2026-04-20 13:33 | 53.81874 | 4.01299 | 38273 ft | 444 kts | 297° |
| 2026-04-20 13:33 | 53.84506 | 3.91837 | 38282 ft | 444 kts | 292° |
| 2026-04-20 13:34 | 53.86854 | 3.82136 | 38279 ft | 445 kts | 293° |
| 2026-04-20 13:34 | 53.89246 | 3.72452 | 38280 ft | 446 kts | 293° |
| 2026-04-20 13:35 | 53.91638 | 3.62750 | 38284 ft | 445 kts | 293° |
| 2026-04-20 13:35 | 53.94020 | 3.53052 | 38287 ft | 446 kts | 293° |
| 2026-04-20 13:36 | 53.96396 | 3.43339 | 38293 ft | 445 kts | 293° |
| 2026-04-20 13:36 | 53.98759 | 3.33631 | 38294 ft | 445 kts | 292° |
| 2026-04-20 13:37 | 54.01120 | 3.23891 | 38291 ft | 445 kts | 292° |
| 2026-04-20 13:37 | 54.03473 | 3.14140 | 38291 ft | 446 kts | 292° |
| 2026-04-20 13:38 | 54.05822 | 3.04362 | 38294 ft | 446 kts | 292° |
| 2026-04-20 13:38 | 54.08160 | 2.94582 | 38296 ft | 446 kts | 292° |
| 2026-04-20 13:39 | 54.10492 | 2.84787 | 38298 ft | 446 kts | 292° |
| 2026-04-20 13:39 | 54.12801 | 2.75040 | 38300 ft | 447 kts | 292° |
| 2026-04-20 13:40 | 54.15122 | 2.65205 | 38298 ft | 447 kts | 292° |
| 2026-04-20 13:40 | 54.17433 | 2.55363 | 38309 ft | 447 kts | 292° |
| 2026-04-20 13:41 | 54.19737 | 2.45505 | 38305 ft | 448 kts | 292° |
| 2026-04-20 13:41 | 54.22036 | 2.35625 | 38306 ft | 447 kts | 292° |
| 2026-04-20 13:42 | 54.24325 | 2.25737 | 38313 ft | 447 kts | 292° |
| 2026-04-20 13:42 | 54.27748 | 2.10871 | 38312 ft | 448 kts | 292° |
| 2026-04-20 13:43 | 54.30022 | 2.00940 | 38312 ft | 448 kts | 292° |
| 2026-04-20 13:43 | 54.32285 | 1.91002 | 38318 ft | 448 kts | 292° |
| 2026-04-20 13:44 | 54.34542 | 1.81049 | 38313 ft | 448 kts | 292° |
| 2026-04-20 13:44 | 54.36429 | 1.72693 | 38322 ft | 448 kts | 292° |
| 2026-04-20 13:45 | 54.38671 | 1.62715 | 38325 ft | 449 kts | 292° |
| 2026-04-20 13:45 | 54.40907 | 1.52725 | 38324 ft | 449 kts | 292° |
| 2026-04-20 13:46 | 54.43120 | 1.42784 | 38327 ft | 449 kts | 292° |
| 2026-04-20 13:46 | 54.45357 | 1.32690 | 38326 ft | 449 kts | 292° |
| 2026-04-20 13:47 | 54.47556 | 1.22717 | 38328 ft | 449 kts | 291° |
| 2026-04-20 13:47 | 54.49757 | 1.12686 | 38324 ft | 449 kts | 291° |
| 2026-04-20 13:48 | 54.51955 | 1.02623 | 38328 ft | 449 kts | 291° |
| 2026-04-20 13:48 | 54.54144 | 0.92551 | 38326 ft | 449 kts | 291° |
| 2026-04-20 13:49 | 54.56325 | 0.82463 | 38332 ft | 449 kts | 291° |
| 2026-04-20 13:49 | 54.58500 | 0.72359 | 38337 ft | 449 kts | 291° |
| 2026-04-20 13:50 | 54.60663 | 0.62258 | 38334 ft | 449 kts | 291° |
| 2026-04-20 13:50 | 54.62816 | 0.52150 | 38339 ft | 449 kts | 291° |
| 2026-04-20 13:51 | 54.64965 | 0.42015 | 38343 ft | 449 kts | 291° |
| 2026-04-20 13:51 | 54.67104 | 0.31880 | 38336 ft | 450 kts | 291° |
| 2026-04-20 13:52 | 54.69237 | 0.21717 | 38345 ft | 450 kts | 291° |
| 2026-04-20 13:52 | 54.71360 | 0.11549 | 38344 ft | 450 kts | 291° |
| 2026-04-20 13:53 | 54.73477 | 0.01363 | 38340 ft | 450 kts | 291° |
| 2026-04-20 13:53 | 54.75585 | -0.08834 | 38344 ft | 450 kts | 291° |
| 2026-04-20 13:54 | 54.77684 | -0.19039 | 38344 ft | 450 kts | 290° |
| 2026-04-20 13:54 | 54.79776 | -0.29265 | 38346 ft | 450 kts | 290° |
| 2026-04-20 13:55 | 54.81860 | -0.39503 | 38347 ft | 450 kts | 290° |
| 2026-04-20 13:55 | 54.83935 | -0.49744 | 38347 ft | 450 kts | 290° |
| 2026-04-20 13:56 | 54.86003 | -0.60008 | 38349 ft | 450 kts | 290° |
| 2026-04-20 13:56 | 54.88061 | -0.70278 | 38350 ft | 450 kts | 290° |
| 2026-04-20 13:57 | 54.89078 | -0.75369 | 38208 ft | 440 kts | 290° |
| 2026-04-20 13:57 | 54.90072 | -0.80363 | 37779 ft | 435 kts | 290° |
| 2026-04-20 13:57 | 54.91057 | -0.85322 | 37202 ft | 434 kts | 290° |
| 2026-04-20 13:57 | 54.92036 | -0.90265 | 36676 ft | 431 kts | 290° |
| 2026-04-20 13:58 | 54.92997 | -0.95125 | 36180 ft | 429 kts | 290° |
| 2026-04-20 13:58 | 54.93959 | -1.00009 | 35686 ft | 427 kts | 290° |
| 2026-04-20 13:58 | 54.94917 | -1.04881 | 35182 ft | 425 kts | 290° |
| 2026-04-20 13:58 | 54.95870 | -1.09738 | 34682 ft | 423 kts | 290° |
| 2026-04-20 13:59 | 54.96818 | -1.14585 | 34148 ft | 422 kts | 290° |
| 2026-04-20 13:59 | 54.97760 | -1.19411 | 33578 ft | 420 kts | 290° |
| 2026-04-20 13:59 | 54.98696 | -1.24215 | 33075 ft | 417 kts | 290° |
| 2026-04-20 13:59 | 54.99619 | -1.28969 | 32617 ft | 413 kts | 290° |
| 2026-04-20 14:00 | 55.00534 | -1.33694 | 32149 ft | 410 kts | 290° |
| 2026-04-20 14:00 | 55.01439 | -1.38373 | 31691 ft | 407 kts | 290° |
| 2026-04-20 14:00 | 55.02338 | -1.43028 | 31236 ft | 404 kts | 290° |
| 2026-04-20 14:00 | 55.03228 | -1.47646 | 30782 ft | 401 kts | 290° |
| 2026-04-20 14:01 | 55.04111 | -1.52241 | 30322 ft | 398 kts | 290° |
| 2026-04-20 14:01 | 55.04986 | -1.56802 | 29808 ft | 395 kts | 290° |
| 2026-04-20 14:01 | 55.05852 | -1.61326 | 29373 ft | 391 kts | 290° |
| 2026-04-20 14:01 | 55.06707 | -1.65802 | 28953 ft | 386 kts | 290° |
| 2026-04-20 14:02 | 55.07548 | -1.70220 | 28535 ft | 382 kts | 290° |
| 2026-04-20 14:02 | 55.08379 | -1.74592 | 28128 ft | 378 kts | 290° |
| 2026-04-20 14:02 | 55.09200 | -1.78920 | 27724 ft | 374 kts | 290° |
| 2026-04-20 14:02 | 55.10013 | -1.83213 | 27327 ft | 370 kts | 290° |
| 2026-04-20 14:03 | 55.10816 | -1.87465 | 26942 ft | 367 kts | 290° |
| 2026-04-20 14:03 | 55.11609 | -1.91677 | 26555 ft | 364 kts | 290° |
| 2026-04-20 14:03 | 55.12459 | -1.95810 | 26137 ft | 360 kts | 297° |
| 2026-04-20 14:03 | 55.13605 | -1.99661 | 25793 ft | 356 kts | 298° |
| 2026-04-20 14:04 | 55.14695 | -2.03515 | 25469 ft | 352 kts | 297° |
| 2026-04-20 14:04 | 55.15765 | -2.07356 | 25095 ft | 350 kts | 297° |
| 2026-04-20 14:04 | 55.16820 | -2.11179 | 24714 ft | 349 kts | 297° |
| 2026-04-20 14:04 | 55.17868 | -2.14998 | 24303 ft | 348 kts | 297° |
| 2026-04-20 14:05 | 55.18909 | -2.18805 | 23915 ft | 347 kts | 297° |
| 2026-04-20 14:05 | 55.19947 | -2.22607 | 23447 ft | 346 kts | 296° |
| 2026-04-20 14:05 | 55.20979 | -2.26399 | 23031 ft | 344 kts | 296° |
| 2026-04-20 14:05 | 55.22003 | -2.30163 | 22642 ft | 341 kts | 296° |
| 2026-04-20 14:06 | 55.23016 | -2.33895 | 22265 ft | 338 kts | 296° |
| 2026-04-20 14:06 | 55.24020 | -2.37601 | 21891 ft | 335 kts | 296° |
| 2026-04-20 14:06 | 55.25015 | -2.41280 | 21512 ft | 333 kts | 296° |
| 2026-04-20 14:06 | 55.26005 | -2.44941 | 21142 ft | 331 kts | 296° |
| 2026-04-20 14:07 | 55.26972 | -2.48528 | 20783 ft | 329 kts | 296° |
| 2026-04-20 14:07 | 55.27958 | -2.52192 | 20409 ft | 327 kts | 296° |
| 2026-04-20 14:07 | 55.28926 | -2.55791 | 20042 ft | 325 kts | 295° |
| 2026-04-20 14:07 | 55.29886 | -2.59365 | 19685 ft | 324 kts | 295° |
| 2026-04-20 14:08 | 55.30842 | -2.62934 | 19323 ft | 322 kts | 295° |
| 2026-04-20 14:08 | 55.31795 | -2.66493 | 18967 ft | 321 kts | 295° |
| 2026-04-20 14:08 | 55.32743 | -2.70042 | 18607 ft | 320 kts | 295° |
| 2026-04-20 14:08 | 55.33672 | -2.73525 | 18212 ft | 319 kts | 295° |
| 2026-04-20 14:09 | 55.34612 | -2.77052 | 17830 ft | 317 kts | 295° |
| 2026-04-20 14:09 | 55.35542 | -2.80553 | 17476 ft | 315 kts | 295° |
| 2026-04-20 14:09 | 55.36471 | -2.84051 | 16968 ft | 318 kts | 295° |
| 2026-04-20 14:09 | 55.37410 | -2.87593 | 16470 ft | 321 kts | 295° |
| 2026-04-20 14:10 | 55.38352 | -2.91150 | 16073 ft | 320 kts | 295° |
| 2026-04-20 14:10 | 55.39290 | -2.94700 | 15702 ft | 319 kts | 295° |
| 2026-04-20 14:10 | 55.40222 | -2.98231 | 15342 ft | 318 kts | 295° |
| 2026-04-20 14:10 | 55.41147 | -3.01745 | 14990 ft | 316 kts | 295° |
| 2026-04-20 14:11 | 55.42071 | -3.05256 | 14636 ft | 315 kts | 295° |
| 2026-04-20 14:11 | 55.42990 | -3.08758 | 14275 ft | 315 kts | 295° |
| 2026-04-20 14:11 | 55.43905 | -3.12246 | 13891 ft | 314 kts | 295° |
| 2026-04-20 14:11 | 55.44817 | -3.15729 | 13517 ft | 312 kts | 295° |
| 2026-04-20 14:12 | 55.45723 | -3.19196 | 13155 ft | 311 kts | 295° |
| 2026-04-20 14:12 | 55.46624 | -3.22644 | 12807 ft | 308 kts | 295° |
| 2026-04-20 14:12 | 55.47517 | -3.26069 | 12455 ft | 306 kts | 294° |
| 2026-04-20 14:12 | 55.48404 | -3.29470 | 12117 ft | 304 kts | 294° |
| 2026-04-20 14:13 | 55.49283 | -3.32851 | 11777 ft | 303 kts | 294° |
| 2026-04-20 14:13 | 55.50373 | -3.35998 | 11377 ft | 302 kts | 315° |
| 2026-04-20 14:13 | 55.51992 | -3.38330 | 11049 ft | 299 kts | 321° |
| 2026-04-20 14:13 | 55.53597 | -3.40647 | 10732 ft | 297 kts | 321° |
| 2026-04-20 14:14 | 55.55185 | -3.42967 | 10411 ft | 296 kts | 320° |
| 2026-04-20 14:14 | 55.56763 | -3.45286 | 10049 ft | 295 kts | 320° |
| 2026-04-20 14:14 | 55.58332 | -3.47602 | 9708 ft | 293 kts | 320° |
| 2026-04-20 14:14 | 55.59890 | -3.49909 | 9368 ft | 291 kts | 320° |
| 2026-04-20 14:15 | 55.61436 | -3.52199 | 9046 ft | 289 kts | 320° |
| 2026-04-20 14:15 | 55.62971 | -3.54476 | 8724 ft | 287 kts | 320° |
| 2026-04-20 14:15 | 55.64489 | -3.56750 | 8396 ft | 285 kts | 319° |
| 2026-04-20 14:15 | 55.65975 | -3.59032 | 8045 ft | 280 kts | 319° |
| 2026-04-20 14:16 | 55.67432 | -3.61272 | 7740 ft | 274 kts | 319° |
| 2026-04-20 14:16 | 55.68832 | -3.63420 | 7459 ft | 266 kts | 320° |
| 2026-04-20 14:16 | 55.70237 | -3.65502 | 7143 ft | 260 kts | 320° |
| 2026-04-20 14:16 | 55.71611 | -3.67535 | 6846 ft | 254 kts | 320° |
| 2026-04-20 14:17 | 55.72953 | -3.69527 | 6507 ft | 250 kts | 320° |
| 2026-04-20 14:17 | 55.74274 | -3.71489 | 6138 ft | 247 kts | 320° |
| 2026-04-20 14:17 | 55.75589 | -3.73465 | 5729 ft | 248 kts | 318° |
| 2026-04-20 14:17 | 55.76877 | -3.75474 | 5371 ft | 245 kts | 324° |
| 2026-04-20 14:18 | 55.78384 | -3.76671 | 5140 ft | 233 kts | 352° |
| 2026-04-20 14:18 | 55.79940 | -3.76454 | 4914 ft | 220 kts | 21° |
| 2026-04-20 14:18 | 55.81203 | -3.75123 | 4741 ft | 204 kts | 39° |
| 2026-04-20 14:18 | 55.82223 | -3.73469 | 4542 ft | 192 kts | 49° |
| 2026-04-20 14:19 | 55.83052 | -3.71705 | 4339 ft | 183 kts | 54° |
| 2026-04-20 14:19 | 55.83799 | -3.69873 | 4128 ft | 183 kts | 57° |
| 2026-04-20 14:19 | 55.84498 | -3.67998 | 3920 ft | 181 kts | 59° |
| 2026-04-20 14:19 | 55.85156 | -3.66140 | 3694 ft | 172 kts | 59° |
| 2026-04-20 14:20 | 55.85769 | -3.64373 | 3484 ft | 164 kts | 60° |
| 2026-04-20 14:20 | 55.86349 | -3.62683 | 3278 ft | 157 kts | 60° |
| 2026-04-20 14:20 | 55.86905 | -3.61053 | 3068 ft | 152 kts | 60° |
| 2026-04-20 14:20 | 55.87447 | -3.59459 | 2896 ft | 150 kts | 60° |
| 2026-04-20 14:21 | 55.87975 | -3.57917 | 2736 ft | 143 kts | 60° |
| 2026-04-20 14:21 | 55.88481 | -3.56432 | 2519 ft | 139 kts | 60° |
| 2026-04-20 14:21 | 55.88982 | -3.54964 | 2328 ft | 138 kts | 60° |
| 2026-04-20 14:21 | 55.89475 | -3.53508 | 2131 ft | 137 kts | 60° |
| 2026-04-20 14:22 | 55.89967 | -3.52061 | 1938 ft | 137 kts | 61° |
| 2026-04-20 14:22 | 55.90458 | -3.50615 | 1743 ft | 136 kts | 61° |
| 2026-04-20 14:22 | 55.90948 | -3.49171 | 1547 ft | 136 kts | 60° |
| 2026-04-20 14:22 | 55.91439 | -3.47732 | 1375 ft | 136 kts | 60° |
| 2026-04-20 14:23 | 55.91933 | -3.46291 | 1193 ft | 137 kts | 60° |
| 2026-04-20 14:23 | 55.92425 | -3.44846 | 998 ft | 136 kts | 61° |
| 2026-04-20 14:23 | 55.92909 | -3.43410 | 738 ft | 135 kts | 58° |
| 2026-04-20 14:23 | 55.93386 | -3.42018 | 578 ft | 130 kts | 58° |
| 2026-04-20 14:24 | 55.93855 | -3.40633 | 363 ft | 132 kts | 59° |
| 2026-04-20 14:24 | 55.94318 | -3.39265 | 238 ft | 125 kts | 58° |
| 2026-04-20 14:24 | 55.94754 | -3.37969 | 116 ft | 114 kts | 59° |
| 2026-04-20 14:24 | 55.95042 | -3.37126 | 115 ft | 45 kts | 59° |
| 2026-04-20 14:25 | 55.95198 | -3.36667 | 115 ft | 42 kts | 59° |
| 2026-04-20 14:25 | 55.95253 | -3.36437 | 112 ft | 12 kts | 105° |
| 2026-04-20 14:25 | 55.95212 | -3.36372 | 115 ft | 1 kts | 150° |
| 2026-04-20 14:25 | 55.95210 | -3.36370 | 116 ft | 0 kts | 150° |
| 2026-04-20 14:26 | 55.95196 | -3.36355 | 117 ft | 8 kts | 149° |
| 2026-04-20 14:26 | 55.95121 | -3.36335 | 117 ft | 13 kts | 224° |
| 2026-04-20 14:27 | 55.95083 | -3.36425 | 116 ft | 0 kts | 205° |
| 2026-04-20 14:27 | 55.95071 | -3.36418 | 118 ft | 5 kts | 150° |
| 2026-04-20 14:27 | 55.95022 | -3.36400 | 119 ft | 9 kts | 205° |
| 2026-04-20 14:27 | 55.94980 | -3.36499 | 117 ft | 12 kts | 239° |
| 2026-04-20 14:28 | 55.94941 | -3.36611 | 115 ft | 4 kts | 239° |
| 2026-04-20 14:28 | 55.94927 | -3.36653 | 118 ft | 2 kts | 237° |
| 2026-04-20 14:28 | 55.94911 | -3.36662 | 119 ft | 3 kts | 173° |
| 2026-04-20 14:28 | 55.94882 | -3.36638 | 116 ft | 6 kts | 146° |
| 2026-04-20 14:29 | 55.94864 | -3.36615 | 118 ft | 2 kts | 145° |
| 2026-04-20 14:29 | 55.94863 | -3.36615 | 118 ft | 0 kts | 145° |